Muskogee, OK (74401)

10:30 AM CDT on May 27, 2017 (GMT -0500)
Downtown Muskogee | | Change Station

Elev 25 ft 35.75 °N, 95.37 °W | Updated 16 seconds ago

Overcast
Overcast
82.8 °F
Feels Like 89 °F
N
6.3
Wind Variable Wind from SE
Gusts 13.0 mph

Today
High -- | Low -- °F
--% Chance of Precip.
Yesterday
High -- | Low -- °F
Precip. -- in
Pressure 29.79 in
Visibility 10.0 miles
Clouds Overcast 2100 ft
Heat Index 89 °F
Dew Point 74 °F
Humidity 74%
Rainfall 0.00 in
Snow Depth Not available.
6:08 AM 8:29 PM
Waxing Crescent, 5% visible
METAR KMKO 271453Z AUTO 18012G19KT 10SM OVC021 27/23 A2981 RMK AO2 SLP086 T02670233 53004 $
Pressure 29.79 in
Visibility 10.0 miles
Clouds Overcast 2100 ft
Heat Index 89 °F
Dew Point 74 °F
Humidity 74%
Rainfall 0.00 in
Snow Depth Not available.
6:08 AM 8:29 PM
Waxing Crescent, 5% visible
METAR KMKO 271453Z AUTO 18012G19KT 10SM OVC021 27/23 A2981 RMK AO2 SLP086 T02670233 53004 $

Get Your Daily Forecast Email!

Thanks for signing up!

Be on the lookout for a verification email in your inbox.

You'll start receiving severe weather alerts in your inbox..

×

10-Day Weather Forecast

Almanac

Astronomy

May. 27, 2017 Rise Set
Actual Time
Civil Twilight
Nautical Twilight
Astronomical Twilight
Moon
Length of Visible Light
Length of Day
Tomorrow will be .
, % of the Moon is Illuminated

Today's Extremes

State Highs State Lows

Community

WunderPhotos

Category 6

Welcome to Category 6. This is the collective home for Weather Underground's featured writeups by Dr. Jeff Masters (right), Bob Henson (left), Chris Burt, and other regular contributors.

Nearby

Air Quality

  Air Quality AQ Index Pollutant
Not available.

Snow Depth

Station Depth Elevation

Earthquake Activity

City Distance Mag. Time & Date
Minimum magnitude displayed is 2.5.

Coastal Water Temperatures

Place Temperature

Stations

Nearby Weather Stations

Station Location Temp. Windchill Dew Point Humidity Wind Precip. Elev Updated Type
                   

Watches & Warnings

Flood Advisory
Issued: 8:40 AM CDT May. 27, 2017 – National Weather Service

The flood advisory continues for
the Arkansas River near Muskogee
* until further notice, or until the advisory is cancelled.
* At 8:00 am Saturday, the stage was 27.9 feet.
* Action stage is 27.0 feet.
* Flood stage is 28.0 feet.
* Forecast... the river will continue to fluctuate around 28 feet
through Thursday.
* Impact... at 28.0 feet, minor lowland flooding occurs.


Lat... Lon 3583 9520 3552 9507 3547 9515 3559 9532 3583 9537